createdAt,value
2022-12-31T00:02:09.619Z,2.00
2022-12-31T00:04:37.872Z,2.42
2022-12-31T00:07:05.883Z,3.50
2022-12-31T00:09:34.044Z,2.83
2022-12-31T00:12:03.350Z,3.10
2022-12-31T00:14:31.582Z,1.92
2022-12-31T00:16:59.558Z,1.42
2022-12-31T00:19:27.775Z,2.10
2022-12-31T00:21:55.699Z,2.77
2022-12-31T00:24:23.891Z,2.20
2022-12-31T00:26:51.803Z,2.72
2022-12-31T00:29:21.283Z,2.42
2022-12-31T00:31:49.254Z,2.33
2022-12-31T00:34:17.431Z,2.30
2022-12-31T00:36:46.050Z,3.10
2022-12-31T00:39:14.367Z,3.72
2022-12-31T00:41:43.901Z,3.28
2022-12-31T00:44:12.951Z,2.42
2022-12-31T00:49:10.368Z,2.90
2022-12-31T00:51:38.351Z,3.95
2022-12-31T00:54:06.726Z,2.55
2022-12-31T00:56:34.631Z,3.30
2022-12-31T00:59:02.842Z,2.87
2022-12-31T01:01:32.493Z,3.17
2022-12-31T01:04:04.607Z,2.13
2022-12-31T01:06:32.667Z,3.40
2022-12-31T01:09:01.110Z,2.17
2022-12-31T01:11:29.947Z,3.47
2022-12-31T01:14:00.181Z,3.63
2022-12-31T01:16:31.824Z,3.83
2022-12-31T01:19:02.605Z,5.07
2022-12-31T01:21:31.245Z,3.05
2022-12-31T01:23:59.500Z,3.20
2022-12-31T01:26:28.232Z,2.00
2022-12-31T01:28:56.451Z,2.33
2022-12-31T01:31:25.250Z,2.42
2022-12-31T01:33:53.791Z,2.00
2022-12-31T01:36:26.340Z,4.70
2022-12-31T01:38:55.169Z,2.88
2022-12-31T01:41:25.275Z,1.98
2022-12-31T01:43:55.541Z,2.53
2022-12-31T01:46:28.351Z,3.92
2022-12-31T01:48:59.091Z,2.40
2022-12-31T01:51:30.812Z,2.38
2022-12-31T01:54:00.182Z,1.85
2022-12-31T01:56:28.174Z,2.15
2022-12-31T01:58:57.604Z,2.88
2022-12-31T02:01:27.746Z,2.73
2022-12-31T02:03:57.712Z,2.72
2022-12-31T02:06:30.364Z,2.33
2022-12-31T02:08:59.012Z,4.03
2022-12-31T02:11:29.064Z,2.35
2022-12-31T02:14:00.353Z,2.37
2022-12-31T02:16:35.600Z,2.28
2022-12-31T02:19:18.354Z,2.80
2022-12-31T02:21:55.003Z,2.60
2022-12-31T02:25:00.632Z,4.35
2022-12-31T02:27:39.106Z,3.13
2022-12-31T02:30:11.739Z,2.38
2022-12-31T02:32:51.793Z,3.08
2022-12-31T02:35:23.373Z,2.33
2022-12-31T02:37:54.146Z,5.13
2022-12-31T02:40:23.510Z,3.27
2022-12-31T02:42:55.370Z,4.75
2022-12-31T02:45:29.915Z,3.40
2022-12-31T02:48:08.024Z,3.72
2022-12-31T02:50:41.949Z,4.82
2022-12-31T02:53:19.957Z,4.10
2022-12-31T02:55:54.129Z,3.15
2022-12-31T02:58:46.019Z,2.78
2022-12-31T03:01:35.703Z,2.20
2022-12-31T03:04:25.733Z,3.38
2022-12-31T03:06:54.469Z,2.43
2022-12-31T03:09:22.528Z,3.15
2022-12-31T03:12:08.221Z,2.33
2022-12-31T03:14:36.130Z,4.43
2022-12-31T03:17:05.694Z,3.97
2022-12-31T03:19:51.061Z,3.67
2022-12-31T03:22:28.500Z,2.47
2022-12-31T03:25:16.928Z,3.50
2022-12-31T03:27:46.871Z,4.13
2022-12-31T03:30:15.836Z,3.65
2022-12-31T03:32:46.697Z,2.77
2022-12-31T03:35:16.728Z,3.83
2022-12-31T03:37:44.979Z,4.35
2022-12-31T03:40:14.560Z,2.70
2022-12-31T03:42:42.777Z,1.85
2022-12-31T03:45:12.230Z,6.53
2022-12-31T03:47:40.435Z,4.82
2022-12-31T03:50:12.185Z,2.95
2022-12-31T03:52:40.575Z,2.67
2022-12-31T03:55:10.155Z,2.90
2022-12-31T03:57:38.454Z,3.07
2022-12-31T04:00:08.137Z,4.18
2022-12-31T04:02:36.481Z,3.78
2022-12-31T04:05:04.883Z,3.55
2022-12-31T04:07:34.504Z,2.53
2022-12-31T04:10:02.851Z,3.43
2022-12-31T04:12:31.028Z,3.13
2022-12-31T04:14:59.335Z,1.98
2022-12-31T04:17:27.833Z,2.88
2022-12-31T04:19:55.786Z,2.97
2022-12-31T04:22:23.992Z,1.93
2022-12-31T04:24:53.305Z,3.20
2022-12-31T04:27:21.504Z,2.97
2022-12-31T04:29:49.403Z,3.50
2022-12-31T04:32:17.216Z,3.95
2022-12-31T04:34:45.415Z,4.17
2022-12-31T04:37:13.401Z,3.83
2022-12-31T04:39:41.572Z,2.00
2022-12-31T04:42:10.939Z,3.28
2022-12-31T04:44:39.039Z,2.33
2022-12-31T04:47:06.950Z,2.70
2022-12-31T04:49:35.133Z,2.35
2022-12-31T04:52:08.830Z,3.53
2022-12-31T04:54:37.014Z,3.92
2022-12-31T04:57:06.312Z,3.00
2022-12-31T04:59:35.802Z,3.23
2022-12-31T05:02:03.950Z,1.92
2022-12-31T05:04:32.446Z,3.30
2022-12-31T05:07:00.432Z,2.47
2022-12-31T05:09:28.638Z,2.40
2022-12-31T05:11:56.629Z,2.30
2022-12-31T05:14:24.879Z,3.10
2022-12-31T05:16:54.540Z,2.28
2022-12-31T05:19:22.831Z,2.03
2022-12-31T05:22:04.691Z,3.00
2022-12-31T05:24:33.169Z,3.60
2022-12-31T05:27:01.051Z,2.78
2022-12-31T05:29:29.301Z,1.92
2022-12-31T05:31:58.560Z,3.45
2022-12-31T05:34:26.702Z,3.63
2022-12-31T05:36:54.599Z,3.30
2022-12-31T05:39:22.772Z,2.83
2022-12-31T05:41:50.652Z,4.40
2022-12-31T05:44:18.986Z,1.23
2022-12-31T05:46:47.026Z,3.05
2022-12-31T05:49:16.936Z,1.87
2022-12-31T05:51:44.893Z,2.90
2022-12-31T05:54:13.116Z,1.85
2022-12-31T05:56:41.237Z,2.42
2022-12-31T05:59:09.362Z,2.45
2022-12-31T06:01:37.262Z,2.77
2022-12-31T06:04:05.996Z,2.67
2022-12-31T06:06:35.297Z,2.60
2022-12-31T06:09:03.623Z,2.05
2022-12-31T06:11:31.609Z,2.55
2022-12-31T06:13:59.806Z,1.93
2022-12-31T06:16:27.994Z,4.65
2022-12-31T06:18:56.314Z,3.13
2022-12-31T06:21:24.214Z,2.47
2022-12-31T06:23:53.702Z,3.45
2022-12-31T06:26:21.960Z,2.87
2022-12-31T06:28:50.177Z,2.08
2022-12-31T06:31:18.127Z,2.88
2022-12-31T06:33:46.843Z,6.53
2022-12-31T06:36:16.518Z,3.67
2022-12-31T06:38:45.474Z,2.30
2022-12-31T06:41:16.281Z,3.10
2022-12-31T06:43:44.495Z,2.80
2022-12-31T06:46:15.795Z,1.83
2022-12-31T06:48:44.903Z,2.85
2022-12-31T06:51:17.251Z,3.13
2022-12-31T06:53:46.333Z,3.78
2022-12-31T06:56:18.408Z,1.98
2022-12-31T06:58:47.260Z,1.70
2022-12-31T07:01:30.122Z,2.90
2022-12-31T07:04:02.388Z,2.33
2022-12-31T07:06:34.589Z,2.05
2022-12-31T07:09:08.226Z,2.65
2022-12-31T07:11:43.124Z,3.30
2022-12-31T07:14:21.898Z,3.45
2022-12-31T07:16:57.501Z,3.07
2022-12-31T07:19:34.266Z,2.50
2022-12-31T07:22:03.840Z,2.90
2022-12-31T07:24:32.484Z,2.55
2022-12-31T07:27:19.375Z,2.92
2022-12-31T07:30:00.250Z,1.53
2022-12-31T07:32:41.499Z,2.13
2022-12-31T07:35:13.588Z,2.83
2022-12-31T07:37:46.947Z,2.45
2022-12-31T07:40:18.898Z,3.47
2022-12-31T07:43:01.771Z,3.40
2022-12-31T07:45:34.572Z,2.88
2022-12-31T07:48:03.282Z,1.75
2022-12-31T07:50:32.216Z,3.28
2022-12-31T07:53:00.618Z,1.40
2022-12-31T07:55:29.320Z,2.87
2022-12-31T07:58:03.542Z,3.35
2022-12-31T08:00:32.218Z,3.50
2022-12-31T08:03:11.433Z,3.05
2022-12-31T08:05:45.393Z,3.38
2022-12-31T08:08:23.618Z,2.37
2022-12-31T08:11:00.959Z,4.03
2022-12-31T08:13:30.573Z,3.97
2022-12-31T08:15:59.086Z,3.30
2022-12-31T08:18:27.517Z,3.80
2022-12-31T08:21:00.370Z,3.57
2022-12-31T08:23:33.792Z,7.95
2022-12-31T08:26:13.861Z,7.13
2022-12-31T08:28:55.491Z,4.95
2022-12-31T08:31:26.991Z,6.80
2022-12-31T08:34:03.872Z,9.43
2022-12-31T08:36:41.230Z,4.25
2022-12-31T08:39:17.303Z,3.70
2022-12-31T08:41:46.920Z,3.08
2022-12-31T08:44:23.336Z,5.50
2022-12-31T08:46:58.171Z,4.60
2022-12-31T08:49:27.510Z,4.22
2022-12-31T08:51:56.391Z,3.40
2022-12-31T08:54:25.005Z,4.15
2022-12-31T08:57:06.340Z,3.00
2022-12-31T08:59:40.594Z,3.50
2022-12-31T09:02:27.562Z,5.07
2022-12-31T09:05:01.257Z,2.92
2022-12-31T09:07:35.308Z,4.65
2022-12-31T09:10:10.398Z,4.03
2022-12-31T09:12:42.615Z,4.97
2022-12-31T09:15:16.423Z,7.20
2022-12-31T09:17:46.132Z,4.50
2022-12-31T09:20:17.220Z,3.53
2022-12-31T09:22:45.767Z,3.90
2022-12-31T09:25:15.892Z,2.50
2022-12-31T09:27:47.519Z,3.25
2022-12-31T09:30:17.682Z,2.58
2022-12-31T09:32:56.850Z,3.95
2022-12-31T09:35:35.425Z,3.83
2022-12-31T09:38:11.272Z,4.10
2022-12-31T09:41:14.374Z,3.10
2022-12-31T09:44:17.916Z,3.72
2022-12-31T09:47:33.060Z,2.50
2022-12-31T09:50:28.083Z,5.95
2022-12-31T09:53:12.356Z,4.60
2022-12-31T09:55:45.823Z,3.28
2022-12-31T09:58:24.712Z,2.65
2022-12-31T10:00:54.532Z,3.58
2022-12-31T10:03:41.844Z,3.45
2022-12-31T10:06:21.215Z,3.93
2022-12-31T10:09:04.015Z,2.50
2022-12-31T10:11:44.524Z,3.50
2022-12-31T10:14:26.969Z,3.35
2022-12-31T10:17:02.345Z,4.53
2022-12-31T10:19:52.832Z,3.07
2022-12-31T10:22:40.961Z,5.43
2022-12-31T10:25:39.394Z,3.10
2022-12-31T10:28:15.821Z,4.50
2022-12-31T10:30:50.168Z,4.97
2022-12-31T10:33:26.606Z,2.50
2022-12-31T10:36:00.707Z,5.15
2022-12-31T10:38:34.937Z,4.35
2022-12-31T10:41:48.655Z,2.97
2022-12-31T10:44:49.893Z,3.08
2022-12-31T10:47:43.220Z,2.93
2022-12-31T10:50:26.641Z,3.30
2022-12-31T10:53:22.753Z,4.35
2022-12-31T10:56:23.513Z,2.70
2022-12-31T10:59:08.458Z,4.07
2022-12-31T11:01:46.045Z,4.13
2022-12-31T11:04:53.168Z,5.13
2022-12-31T11:07:48.578Z,2.67
2022-12-31T11:10:49.800Z,4.70
2022-12-31T11:14:03.177Z,3.60
2022-12-31T11:16:42.466Z,7.87
2022-12-31T11:19:17.779Z,4.85
2022-12-31T11:21:58.403Z,6.15
2022-12-31T11:24:39.619Z,3.75
2022-12-31T11:27:18.555Z,7.35
2022-12-31T11:29:58.004Z,4.20
2022-12-31T11:32:37.201Z,6.60
2022-12-31T11:35:16.605Z,4.22
2022-12-31T11:37:48.040Z,2.67
2022-12-31T11:40:35.345Z,4.20
2022-12-31T11:43:12.598Z,3.23
2022-12-31T11:45:53.789Z,3.20
2022-12-31T11:48:32.660Z,3.70
2022-12-31T11:51:15.264Z,3.00
2022-12-31T11:54:08.313Z,5.43
2022-12-31T11:56:38.851Z,2.77
2022-12-31T11:59:18.653Z,3.83
2022-12-31T12:01:53.854Z,3.35
2022-12-31T12:04:21.862Z,3.00
2022-12-31T12:06:50.020Z,2.88
2022-12-31T12:09:23.465Z,4.27
2022-12-31T12:11:59.964Z,3.15
2022-12-31T12:14:35.238Z,3.15
2022-12-31T12:17:05.720Z,20.50
2022-12-31T12:19:35.686Z,12.80
2022-12-31T12:22:12.043Z,15.00
2022-12-31T12:24:40.559Z,9.10
2022-12-31T12:27:21.867Z,3.47
2022-12-31T12:29:51.512Z,4.53
2022-12-31T12:32:21.052Z,4.38
2022-12-31T12:34:50.142Z,3.70
2022-12-31T12:37:30.059Z,3.35
2022-12-31T12:39:59.236Z,2.33
2022-12-31T12:42:27.769Z,3.95
2022-12-31T12:45:05.134Z,3.08
2022-12-31T12:47:34.083Z,3.87
2022-12-31T12:50:02.117Z,3.10
2022-12-31T12:52:41.329Z,2.13
2022-12-31T12:55:18.424Z,1.73
2022-12-31T12:57:50.535Z,3.30
2022-12-31T13:00:21.634Z,2.70
2022-12-31T13:03:19.201Z,2.55
2022-12-31T13:06:06.472Z,3.05
2022-12-31T13:08:48.190Z,2.17
2022-12-31T13:11:26.820Z,2.15
2022-12-31T13:14:00.262Z,3.03
2022-12-31T13:16:35.971Z,3.08
2022-12-31T13:19:10.007Z,3.90
2022-12-31T13:21:42.827Z,3.50
2022-12-31T13:24:19.651Z,1.85
2022-12-31T13:26:53.446Z,3.63
2022-12-31T13:29:25.257Z,2.53
2022-12-31T13:31:55.877Z,2.13
2022-12-31T13:34:29.002Z,3.50
2022-12-31T13:37:00.349Z,3.50
2022-12-31T13:39:30.548Z,2.33
2022-12-31T13:42:02.218Z,7.35
2022-12-31T13:44:32.488Z,8.25
2022-12-31T13:47:05.559Z,6.68
2022-12-31T13:49:39.294Z,6.30
2022-12-31T13:52:19.855Z,5.67
2022-12-31T13:54:55.595Z,4.03
2022-12-31T13:57:33.895Z,2.65
2022-12-31T14:00:05.722Z,5.05
2022-12-31T14:02:45.363Z,5.35
2022-12-31T14:05:18.549Z,2.67
2022-12-31T14:07:50.254Z,5.45
2022-12-31T14:10:21.747Z,3.38
2022-12-31T14:12:54.999Z,5.60
2022-12-31T14:15:25.268Z,4.20
2022-12-31T14:18:01.515Z,2.63
2022-12-31T14:20:35.272Z,5.80
2022-12-31T14:23:07.812Z,2.63
2022-12-31T14:25:38.664Z,3.67
2022-12-31T14:28:08.235Z,3.28
2022-12-31T14:30:38.972Z,8.17
2022-12-31T14:33:24.234Z,3.10
2022-12-31T14:36:10.958Z,2.63
2022-12-31T14:38:48.570Z,2.25
2022-12-31T14:41:27.571Z,1.30
2022-12-31T14:44:01.881Z,3.07
2022-12-31T14:46:36.955Z,2.90
2022-12-31T14:49:23.222Z,2.00
2022-12-31T14:51:51.578Z,2.13
2022-12-31T14:54:29.025Z,2.17
2022-12-31T14:56:57.430Z,2.60
2022-12-31T14:59:27.715Z,4.07
2022-12-31T15:01:56.724Z,4.70
2022-12-31T15:04:43.479Z,6.45
2022-12-31T15:07:17.394Z,5.60
2022-12-31T15:09:52.415Z,4.47
2022-12-31T15:12:28.821Z,3.67
2022-12-31T15:15:33.189Z,3.85
2022-12-31T15:18:12.152Z,3.33
2022-12-31T15:20:50.588Z,3.05
2022-12-31T15:23:22.458Z,3.10
2022-12-31T15:25:54.138Z,3.67
2022-12-31T15:28:30.587Z,5.88
2022-12-31T15:31:03.133Z,6.30
2022-12-31T15:33:33.978Z,3.65
2022-12-31T15:36:14.781Z,4.37
2022-12-31T15:38:43.319Z,3.30
2022-12-31T15:41:27.625Z,5.53
2022-12-31T15:43:58.964Z,3.17
2022-12-31T15:46:30.088Z,3.42
2022-12-31T15:49:05.146Z,3.70
2022-12-31T15:51:44.397Z,31.55
2022-12-31T15:54:23.751Z,20.17
2022-12-31T15:56:53.178Z,17.83
2022-12-31T15:59:22.701Z,3.90
2022-12-31T16:01:51.029Z,3.03
2022-12-31T16:04:21.856Z,3.15
2022-12-31T16:06:51.529Z,2.72
2022-12-31T16:09:22.753Z,4.00
2022-12-31T16:11:51.830Z,4.28
2022-12-31T16:14:23.702Z,3.00
2022-12-31T16:16:54.027Z,4.68
2022-12-31T16:19:32.817Z,2.60
2022-12-31T16:22:08.077Z,3.58
2022-12-31T16:24:48.903Z,6.75
2022-12-31T16:27:25.935Z,5.63
2022-12-31T16:29:59.602Z,4.70
2022-12-31T16:32:27.804Z,5.75
2022-12-31T16:34:55.905Z,5.05
2022-12-31T16:37:25.171Z,5.68
2022-12-31T16:40:18.895Z,4.63
2022-12-31T16:42:47.831Z,4.75
2022-12-31T16:45:30.081Z,5.07
2022-12-31T16:47:58.576Z,6.15
2022-12-31T16:50:26.854Z,7.03
2022-12-31T16:53:00.945Z,7.70
2022-12-31T16:55:30.469Z,9.85
2022-12-31T16:58:00.941Z,7.95
2022-12-31T17:00:29.309Z,7.95
2022-12-31T17:03:05.021Z,8.15
2022-12-31T17:05:35.117Z,10.87
2022-12-31T17:08:24.731Z,10.20
2022-12-31T17:10:52.966Z,9.23
2022-12-31T17:13:30.806Z,9.32
2022-12-31T17:15:59.744Z,9.63
2022-12-31T17:18:30.185Z,7.93
2022-12-31T17:21:06.854Z,9.18
2022-12-31T17:23:37.900Z,10.18
2022-12-31T17:26:10.724Z,7.68
2022-12-31T17:28:43.376Z,6.82
2022-12-31T17:31:30.867Z,7.00
2022-12-31T17:34:07.651Z,5.90
2022-12-31T17:36:36.034Z,8.25
2022-12-31T17:39:18.516Z,8.05
2022-12-31T17:41:47.759Z,7.95
2022-12-31T17:44:18.863Z,8.07
2022-12-31T17:46:47.252Z,8.10
2022-12-31T17:49:15.237Z,21.05
2022-12-31T17:51:47.537Z,11.38
2022-12-31T17:54:18.257Z,9.20
2022-12-31T17:56:47.021Z,8.70
2022-12-31T17:59:17.095Z,7.68
2022-12-31T18:01:45.761Z,5.70
2022-12-31T18:04:14.699Z,6.93
2022-12-31T18:06:43.273Z,7.57
2022-12-31T18:09:11.262Z,5.00
2022-12-31T18:11:41.387Z,6.50
2022-12-31T18:14:09.358Z,7.00
2022-12-31T18:16:37.908Z,16.08
2022-12-31T18:19:23.465Z,15.27
2022-12-31T18:22:00.670Z,15.03
2022-12-31T18:24:28.616Z,12.48
2022-12-31T18:26:58.135Z,11.68
2022-12-31T18:29:26.150Z,8.50
2022-12-31T18:31:54.484Z,7.93
2022-12-31T18:34:22.457Z,7.50
2022-12-31T18:36:50.585Z,9.30
2022-12-31T18:39:18.482Z,9.98
2022-12-31T18:41:49.367Z,8.45
2022-12-31T18:44:18.778Z,12.57
2022-12-31T18:46:46.967Z,11.57
2022-12-31T18:49:14.882Z,11.73
2022-12-31T18:51:43.088Z,10.40
2022-12-31T18:54:11.928Z,11.75
2022-12-31T18:56:46.499Z,11.02
2022-12-31T18:59:15.703Z,7.53
2022-12-31T19:01:45.356Z,6.07
2022-12-31T19:04:14.778Z,9.95
2022-12-31T19:06:43.786Z,7.22
2022-12-31T19:09:30.635Z,8.10
2022-12-31T19:12:00.920Z,6.93
2022-12-31T19:14:29.017Z,6.20
2022-12-31T19:19:26.641Z,7.03
2022-12-31T19:21:55.047Z,6.95
2022-12-31T19:24:26.423Z,8.23
2022-12-31T19:26:55.005Z,7.90
2022-12-31T19:29:24.566Z,7.63
2022-12-31T19:31:53.061Z,9.63
2022-12-31T19:34:22.509Z,7.53
2022-12-31T19:36:50.684Z,8.63
2022-12-31T19:39:20.412Z,8.05
2022-12-31T19:41:56.567Z,6.90
2022-12-31T19:44:26.956Z,8.02
2022-12-31T19:46:55.256Z,12.32
2022-12-31T19:49:24.551Z,10.70
2022-12-31T19:51:52.772Z,11.98
2022-12-31T19:54:20.741Z,13.85
2022-12-31T19:56:48.963Z,13.27
2022-12-31T19:59:16.859Z,14.85
2022-12-31T20:01:45.222Z,15.87
2022-12-31T20:04:13.276Z,14.20
2022-12-31T20:06:42.764Z,15.15
2022-12-31T20:09:12.125Z,12.88
2022-12-31T20:11:40.282Z,13.65
2022-12-31T20:14:08.292Z,9.73
2022-12-31T20:16:36.603Z,11.73
2022-12-31T20:19:05.927Z,10.43
2022-12-31T20:21:34.275Z,10.52
2022-12-31T20:24:03.581Z,22.20
2022-12-31T20:26:31.844Z,15.17
2022-12-31T20:28:59.737Z,14.35
2022-12-31T20:31:27.904Z,13.07
2022-12-31T20:33:56.119Z,15.70
2022-12-31T20:36:25.737Z,14.35
2022-12-31T20:38:53.783Z,16.87
2022-12-31T20:41:23.862Z,8.65
2022-12-31T20:43:52.211Z,8.20
2022-12-31T20:46:21.928Z,8.13
2022-12-31T20:48:52.067Z,8.75
2022-12-31T20:51:21.757Z,12.97
2022-12-31T20:53:51.562Z,8.38
2022-12-31T20:56:19.866Z,7.68
2022-12-31T20:58:49.326Z,7.50
2022-12-31T21:01:18.186Z,7.63
2022-12-31T21:04:04.766Z,7.83
2022-12-31T21:06:34.762Z,8.57
2022-12-31T21:09:05.225Z,7.18
2022-12-31T21:11:51.051Z,9.30
2022-12-31T21:14:20.339Z,7.10
2022-12-31T21:16:48.801Z,9.10
2022-12-31T21:19:16.744Z,9.85
2022-12-31T21:21:45.052Z,8.50
2022-12-31T21:24:17.479Z,7.22
2022-12-31T21:26:51.239Z,7.15
2022-12-31T21:29:20.547Z,9.03
2022-12-31T21:31:48.735Z,7.30
2022-12-31T21:34:16.735Z,8.65
2022-12-31T21:36:45.024Z,8.35
2022-12-31T21:39:12.983Z,8.18
2022-12-31T21:41:53.306Z,8.43
2022-12-31T21:44:24.510Z,8.98
2022-12-31T21:47:33.325Z,8.20
2022-12-31T21:49:43.719Z,8.05
2022-12-31T21:52:26.936Z,8.48
2022-12-31T21:55:12.894Z,7.37
2022-12-31T21:58:15.671Z,8.07
2022-12-31T22:00:48.533Z,7.93
2022-12-31T22:03:27.425Z,7.70
2022-12-31T22:05:57.987Z,7.30
2022-12-31T22:08:26.630Z,8.60
2022-12-31T22:10:54.975Z,7.15
2022-12-31T22:13:24.139Z,6.57
2022-12-31T22:16:01.801Z,7.30
2022-12-31T22:18:35.320Z,6.68
2022-12-31T22:21:05.388Z,8.23
2022-12-31T22:23:34.999Z,7.00
2022-12-31T22:26:03.484Z,7.78
2022-12-31T22:28:40.151Z,7.38
2022-12-31T22:31:10.644Z,8.20
2022-12-31T22:33:38.850Z,8.70
2022-12-31T22:36:09.051Z,8.93
2022-12-31T22:38:37.488Z,7.03
2022-12-31T22:41:07.603Z,8.02
2022-12-31T22:43:37.195Z,8.85
2022-12-31T22:46:11.936Z,8.93
2022-12-31T22:48:40.933Z,11.90
2022-12-31T22:51:10.162Z,10.45
2022-12-31T22:53:39.618Z,9.05
2022-12-31T22:56:08.176Z,9.63
2022-12-31T22:58:38.010Z,9.40
2022-12-31T23:01:07.014Z,10.95
2022-12-31T23:03:36.671Z,144.32
2022-12-31T23:06:04.949Z,119.53
2022-12-31T23:08:33.626Z,155.35
2022-12-31T23:11:00.736Z,190.20
2022-12-31T23:13:50.545Z,184.38
2022-12-31T23:16:37.489Z,172.38
2022-12-31T23:19:25.335Z,197.80
2022-12-31T23:22:10.936Z,158.85
2022-12-31T23:24:39.623Z,110.37
2022-12-31T23:27:08.216Z,132.20
2022-12-31T23:29:45.523Z,105.15
2022-12-31T23:32:15.040Z,113.22
2022-12-31T23:34:45.462Z,105.68
2022-12-31T23:37:14.133Z,123.70
2022-12-31T23:39:42.697Z,121.57
2022-12-31T23:42:10.609Z,110.72
2022-12-31T23:44:38.907Z,100.38
2022-12-31T23:47:06.951Z,75.90
2022-12-31T23:49:35.191Z,66.13
2022-12-31T23:52:04.685Z,57.47
2022-12-31T23:54:32.885Z,44.70
2022-12-31T23:57:00.904Z,39.00
2022-12-31T23:59:29.184Z,38.38
